createdAt,value
2022-08-12T00:00:21.018Z,18.89
2022-08-12T00:02:03.632Z,18.86
2022-08-12T00:02:21.976Z,18.83
2022-08-12T00:03:21.263Z,18.78
2022-08-12T00:04:20.975Z,18.74
2022-08-12T00:05:20.944Z,18.71
2022-08-12T00:06:20.935Z,18.68
2022-08-12T00:07:20.925Z,18.62
2022-08-12T00:08:32.348Z,18.60
2022-08-12T00:09:26.137Z,18.56
2022-08-12T00:10:20.933Z,18.53
2022-08-12T00:11:20.877Z,18.52
2022-08-12T00:12:20.871Z,18.49
2022-08-12T00:13:20.849Z,18.44
2022-08-12T00:14:20.847Z,18.43
2022-08-12T00:15:20.857Z,18.43
2022-08-12T00:16:20.818Z,18.43
2022-08-12T00:17:23.146Z,18.40
2022-08-12T00:18:20.794Z,18.40
2022-08-12T00:19:20.781Z,18.35
2022-08-12T00:20:20.778Z,18.31
2022-08-12T00:21:20.788Z,18.26
2022-08-12T00:22:20.748Z,18.23
2022-08-12T00:23:20.738Z,18.19
2022-08-12T00:24:20.719Z,18.16
2022-08-12T00:25:20.715Z,18.13
2022-08-12T00:26:24.417Z,18.15
2022-08-12T00:27:20.689Z,18.13
2022-08-12T00:28:20.697Z,18.13
2022-08-12T00:29:20.668Z,18.15
2022-08-12T00:30:20.658Z,18.13
2022-08-12T00:31:20.645Z,18.13
2022-08-12T00:32:35.376Z,18.11
2022-08-12T00:33:22.150Z,18.08
2022-08-12T00:34:20.609Z,18.05
2022-08-12T00:35:20.600Z,18.05
2022-08-12T00:36:36.160Z,18.03
2022-08-12T00:37:21.599Z,18.03
2022-08-12T00:38:20.561Z,18.00
2022-08-12T00:39:20.573Z,17.95
2022-08-12T00:40:20.542Z,17.94
2022-08-12T00:41:20.528Z,17.94
2022-08-12T00:42:20.519Z,17.90
2022-08-12T00:43:20.536Z,17.87
2022-08-12T00:44:20.500Z,17.83
2022-08-12T00:45:20.485Z,17.79
2022-08-12T00:46:20.480Z,17.79
2022-08-12T00:47:24.964Z,17.82
2022-08-12T00:48:21.470Z,17.80
2022-08-12T00:49:20.433Z,17.78
2022-08-12T00:50:20.427Z,17.72
2022-08-12T00:51:20.419Z,17.71
2022-08-12T00:52:20.400Z,17.70
2022-08-12T00:53:20.389Z,17.65
2022-08-12T00:54:20.410Z,17.60
2022-08-12T00:55:20.394Z,17.57
2022-08-12T00:56:20.360Z,17.52
2022-08-12T00:57:20.347Z,17.51
2022-08-12T00:58:20.341Z,17.48
2022-08-12T00:59:20.345Z,17.44
2022-08-12T01:00:20.313Z,17.44
2022-08-12T01:01:20.347Z,17.39
2022-08-12T01:02:20.333Z,17.34
2022-08-12T01:03:20.272Z,17.33
2022-08-12T01:04:20.261Z,17.33
2022-08-12T01:05:20.315Z,17.31
2022-08-12T01:06:20.242Z,17.29
2022-08-12T01:07:20.232Z,17.26
2022-08-12T01:08:20.221Z,17.26
2022-08-12T01:09:20.203Z,17.22
2022-08-12T01:10:20.200Z,17.22
2022-08-12T01:11:21.201Z,17.23
2022-08-12T01:12:20.171Z,17.22
2022-08-12T01:13:20.522Z,17.19
2022-08-12T01:14:20.153Z,17.15
2022-08-12T01:15:20.132Z,17.14
2022-08-12T01:16:20.122Z,17.11
2022-08-12T01:17:20.140Z,17.06
2022-08-12T01:18:20.110Z,17.04
2022-08-12T01:19:22.138Z,16.97
2022-08-12T01:20:20.083Z,16.94
2022-08-12T01:21:20.074Z,16.91
2022-08-12T01:22:20.063Z,16.89
2022-08-12T01:23:20.063Z,16.87
2022-08-12T01:24:28.149Z,16.87
2022-08-12T01:25:21.023Z,16.84
2022-08-12T01:26:20.014Z,16.86
2022-08-12T01:27:19.995Z,16.81
2022-08-12T01:28:20.037Z,16.81
2022-08-12T01:29:19.963Z,16.83
2022-08-12T01:30:19.971Z,16.86
2022-08-12T01:31:19.957Z,16.86
2022-08-12T01:32:19.942Z,16.86
2022-08-12T01:33:19.935Z,16.83
2022-08-12T01:34:36.568Z,16.78
2022-08-12T01:35:20.910Z,16.72
2022-08-12T01:36:19.894Z,16.68
2022-08-12T01:37:19.887Z,16.65
2022-08-12T01:38:19.874Z,16.57
2022-08-12T01:39:20.928Z,16.50
2022-08-12T01:40:36.098Z,16.49
2022-08-12T01:41:20.833Z,16.47
2022-08-12T01:42:19.825Z,16.46
2022-08-12T01:43:19.816Z,16.42
2022-08-12T01:44:20.556Z,16.39
2022-08-12T01:45:19.813Z,16.38
2022-08-12T01:46:19.777Z,16.36
2022-08-12T01:47:19.765Z,16.33
2022-08-12T01:48:19.755Z,16.35
2022-08-12T01:49:21.624Z,16.35
2022-08-12T01:50:19.734Z,16.33
2022-08-12T01:52:04.451Z,16.32
2022-08-12T01:52:22.725Z,16.29
2022-08-12T01:53:19.694Z,16.29
2022-08-12T01:54:19.686Z,16.29
2022-08-12T01:55:19.673Z,16.28
2022-08-12T01:56:19.697Z,16.26
2022-08-12T01:57:57.620Z,16.26
2022-08-12T01:58:20.647Z,16.28
2022-08-12T01:59:19.625Z,16.29
2022-08-12T02:00:19.664Z,16.31
2022-08-12T02:01:19.630Z,16.29
2022-08-12T02:02:19.609Z,16.26
2022-08-12T02:03:19.585Z,16.23
2022-08-12T02:04:19.566Z,16.21
2022-08-12T02:05:19.569Z,16.15
2022-08-12T02:06:19.549Z,16.15
2022-08-12T02:07:19.555Z,16.15
2022-08-12T02:08:19.516Z,16.16
2022-08-12T02:09:19.514Z,16.16
2022-08-12T02:10:49.283Z,16.15
2022-08-12T02:11:20.496Z,16.15
2022-08-12T02:12:24.644Z,16.13
2022-08-12T02:13:41.882Z,16.16
2022-08-12T02:14:20.456Z,16.17
2022-08-12T02:15:19.446Z,16.21
2022-08-12T02:16:19.428Z,16.24
2022-08-12T02:17:19.422Z,16.24
2022-08-12T02:18:20.407Z,16.20
2022-08-12T02:19:22.215Z,16.20
2022-08-12T02:20:19.396Z,16.20
2022-08-12T02:21:19.379Z,16.17
2022-08-12T02:22:19.358Z,16.17
2022-08-12T02:23:19.362Z,16.13
2022-08-12T02:24:19.338Z,16.10
2022-08-12T02:25:19.359Z,16.10
2022-08-12T02:26:19.308Z,16.09
2022-08-12T02:27:19.311Z,16.08
2022-08-12T02:28:19.300Z,16.08
2022-08-12T02:29:19.287Z,16.02
2022-08-12T02:30:19.288Z,16.01
2022-08-12T02:31:19.267Z,15.98
2022-08-12T02:32:19.248Z,15.95
2022-08-12T02:33:19.238Z,15.90
2022-08-12T02:34:19.228Z,15.88
2022-08-12T02:35:19.217Z,15.90
2022-08-12T02:36:19.219Z,15.95
2022-08-12T02:37:19.191Z,15.97
2022-08-12T02:38:19.180Z,15.97
2022-08-12T02:39:19.251Z,16.00
2022-08-12T02:40:19.159Z,16.01
2022-08-12T02:41:19.178Z,15.98
2022-08-12T02:42:19.139Z,15.98
2022-08-12T02:43:19.129Z,15.98
2022-08-12T02:44:19.119Z,15.97
2022-08-12T02:45:19.100Z,15.95
2022-08-12T02:46:19.090Z,15.95
2022-08-12T02:47:59.131Z,15.94
2022-08-12T02:48:20.069Z,15.91
2022-08-12T02:49:19.058Z,15.91
2022-08-12T02:50:19.040Z,15.90
2022-08-12T02:51:19.040Z,15.90
2022-08-12T02:52:19.054Z,15.88
2022-08-12T02:53:19.015Z,15.88
2022-08-12T02:54:19.002Z,15.86
2022-08-12T02:55:28.167Z,15.86
2022-08-12T02:56:19.970Z,15.84
2022-08-12T02:57:18.972Z,15.83
2022-08-12T02:58:19.808Z,15.82
2022-08-12T02:59:18.945Z,15.84
2022-08-12T03:00:18.939Z,15.84
2022-08-12T03:01:19.001Z,15.82
2022-08-12T03:02:18.907Z,15.79
2022-08-12T03:03:18.919Z,15.79
2022-08-12T03:04:20.601Z,15.75
2022-08-12T03:05:18.884Z,15.68
2022-08-12T03:06:18.857Z,15.65
2022-08-12T03:07:18.852Z,15.61
2022-08-12T03:08:29.877Z,15.61
2022-08-12T03:09:19.854Z,15.59
2022-08-12T03:10:36.490Z,15.58
2022-08-12T03:11:19.812Z,15.55
2022-08-12T03:12:20.120Z,15.55
2022-08-12T03:13:18.791Z,15.52
2022-08-12T03:14:18.775Z,15.55
2022-08-12T03:15:18.785Z,15.54
2022-08-12T03:16:18.754Z,15.55
2022-08-12T03:17:18.741Z,15.58
2022-08-12T03:18:25.375Z,15.57
2022-08-12T03:19:19.721Z,15.54
2022-08-12T03:20:18.721Z,15.55
2022-08-12T03:21:53.200Z,15.62
2022-08-12T03:22:19.682Z,15.64
2022-08-12T03:23:29.270Z,15.62
2022-08-12T03:24:19.662Z,15.59
2022-08-12T03:25:18.651Z,15.58
2022-08-12T03:26:18.673Z,15.57
2022-08-12T03:27:18.652Z,15.54
2022-08-12T03:28:23.521Z,15.51
2022-08-12T03:29:19.593Z,15.49
2022-08-12T03:30:18.585Z,15.44
2022-08-12T03:31:18.583Z,15.43
2022-08-12T03:32:35.744Z,15.39
2022-08-12T03:33:19.592Z,15.36
2022-08-12T03:34:18.541Z,15.35
2022-08-12T03:35:20.514Z,15.31
2022-08-12T03:36:19.525Z,15.31
2022-08-12T03:37:18.513Z,15.29
2022-08-12T03:38:18.541Z,15.28
2022-08-12T03:39:18.849Z,15.25
2022-08-12T03:40:18.472Z,15.25
2022-08-12T03:41:18.463Z,15.27
2022-08-12T03:42:18.463Z,15.25
2022-08-12T03:43:18.453Z,15.24
2022-08-12T03:44:18.464Z,15.25
2022-08-12T03:45:18.420Z,15.25
2022-08-12T03:46:18.403Z,15.25
2022-08-12T03:47:18.403Z,15.27
2022-08-12T03:48:18.644Z,15.28
2022-08-12T03:49:18.376Z,15.25
2022-08-12T03:50:18.405Z,15.27
2022-08-12T03:51:18.352Z,15.27
2022-08-12T03:52:18.343Z,15.27
2022-08-12T03:53:18.331Z,15.28
2022-08-12T03:54:18.313Z,15.29
2022-08-12T03:55:18.303Z,15.36
2022-08-12T03:56:18.325Z,15.35
2022-08-12T03:57:18.281Z,15.35
2022-08-12T03:58:18.278Z,15.36
2022-08-12T03:59:18.264Z,15.35
2022-08-12T04:00:24.100Z,15.33
2022-08-12T04:01:19.341Z,15.29
2022-08-12T04:02:18.224Z,15.28
2022-08-12T04:03:18.213Z,15.27
2022-08-12T04:04:18.204Z,15.24
2022-08-12T04:05:21.446Z,15.24
2022-08-12T04:06:18.177Z,15.25
2022-08-12T04:08:28.081Z,15.24
2022-08-12T04:09:28.051Z,15.25
2022-08-12T04:10:28.072Z,15.25
2022-08-12T04:11:32.045Z,15.24
2022-08-12T04:12:32.310Z,15.24
2022-08-12T04:13:29.035Z,15.22
2022-08-12T04:14:28.021Z,15.21
2022-08-12T04:15:27.985Z,15.19
2022-08-12T04:16:28.723Z,15.15
2022-08-12T04:17:27.990Z,15.15
2022-08-12T04:18:27.962Z,15.11
2022-08-12T04:19:27.961Z,15.15
2022-08-12T04:20:27.932Z,15.11
2022-08-12T04:21:27.925Z,15.14
2022-08-12T04:22:27.911Z,15.15
2022-08-12T04:23:27.902Z,15.17
2022-08-12T04:24:27.912Z,15.14
2022-08-12T04:25:27.881Z,15.15
2022-08-12T04:26:27.895Z,15.18
2022-08-12T04:27:27.853Z,15.19
2022-08-12T04:28:27.922Z,15.18
2022-08-12T04:30:30.688Z,15.17
2022-08-12T04:30:33.357Z,15.19
2022-08-12T04:31:28.823Z,15.22
2022-08-12T04:32:27.807Z,15.24
2022-08-12T04:33:27.791Z,15.27
2022-08-12T04:34:27.825Z,15.24
2022-08-12T04:35:27.813Z,15.25
2022-08-12T04:36:27.763Z,15.22
2022-08-12T04:37:27.753Z,15.21
2022-08-12T04:38:27.732Z,15.21
2022-08-12T04:39:27.755Z,15.19
2022-08-12T04:40:28.224Z,15.19
2022-08-12T04:41:27.748Z,15.21
2022-08-12T04:42:27.693Z,15.19
2022-08-12T04:43:59.605Z,15.21
2022-08-12T04:44:28.671Z,15.24
2022-08-12T04:45:27.654Z,15.27
2022-08-12T04:46:30.810Z,15.29
2022-08-12T04:47:28.654Z,15.27
2022-08-12T04:48:27.622Z,15.28
2022-08-12T04:49:27.617Z,15.28
2022-08-12T04:50:36.020Z,15.27
2022-08-12T04:51:28.596Z,15.28
2022-08-12T04:52:31.805Z,15.31
2022-08-12T04:53:28.614Z,15.35
2022-08-12T04:54:27.561Z,15.37
2022-08-12T04:55:27.544Z,15.39
2022-08-12T04:56:27.536Z,15.42
2022-08-12T04:57:28.525Z,15.44
2022-08-12T04:58:29.588Z,15.42
2022-08-12T04:59:27.525Z,15.44
2022-08-12T05:00:27.488Z,15.44
2022-08-12T05:01:27.524Z,15.49
2022-08-12T05:02:27.558Z,15.54
2022-08-12T05:03:27.463Z,15.58
2022-08-12T05:04:27.444Z,15.61
2022-08-12T05:05:27.876Z,15.64
2022-08-12T05:06:27.427Z,15.67
2022-08-12T05:07:27.415Z,15.68
2022-08-12T05:08:27.395Z,15.72
2022-08-12T05:09:27.388Z,15.73
2022-08-12T05:10:33.397Z,15.75
2022-08-12T05:11:28.365Z,15.77
2022-08-12T05:12:27.364Z,15.83
2022-08-12T05:13:27.349Z,15.90
2022-08-12T05:14:27.326Z,15.92
2022-08-12T05:15:29.263Z,15.95
2022-08-12T05:16:32.359Z,16.00
2022-08-12T05:17:28.514Z,16.05
2022-08-12T05:18:29.424Z,16.09
2022-08-12T05:19:27.322Z,16.12
2022-08-12T05:20:27.265Z,16.16
2022-08-12T05:21:27.275Z,16.20
2022-08-12T05:22:27.246Z,16.23
2022-08-12T05:23:27.238Z,16.29
2022-08-12T05:24:27.218Z,16.35
2022-08-12T05:25:27.216Z,16.38
2022-08-12T05:26:27.276Z,16.42
2022-08-12T05:27:27.207Z,16.49
2022-08-12T05:28:27.533Z,16.54
2022-08-12T05:30:07.677Z,16.60
2022-08-12T05:30:28.147Z,16.66
2022-08-12T05:31:40.387Z,16.72
2022-08-12T05:32:28.147Z,16.75
2022-08-12T05:33:27.117Z,16.79
2022-08-12T05:34:27.106Z,16.84
2022-08-12T05:35:27.106Z,16.89
2022-08-12T05:36:27.091Z,16.93
2022-08-12T05:37:27.077Z,16.99
2022-08-12T05:38:27.079Z,17.05
2022-08-12T05:39:27.100Z,17.12
2022-08-12T05:40:27.037Z,17.19
2022-08-12T05:41:27.030Z,17.26
2022-08-12T05:42:34.428Z,17.34
2022-08-12T05:43:28.071Z,17.44
2022-08-12T05:44:26.990Z,17.51
2022-08-12T05:45:26.986Z,17.59
2022-08-12T05:46:26.968Z,17.67
2022-08-12T05:47:38.501Z,17.72
2022-08-12T05:48:27.958Z,17.79
2022-08-12T05:49:27.009Z,17.85
2022-08-12T05:50:26.927Z,17.94
2022-08-12T05:51:39.494Z,18.03
2022-08-12T05:52:28.117Z,18.08
2022-08-12T05:53:26.889Z,18.18
2022-08-12T05:54:41.178Z,18.28
2022-08-12T05:55:31.204Z,18.37
2022-08-12T05:56:26.857Z,18.50
2022-08-12T05:57:26.848Z,18.62
2022-08-12T05:58:26.829Z,18.75
2022-08-12T05:59:26.832Z,18.84
2022-08-12T06:00:26.812Z,18.93
2022-08-12T06:02:10.841Z,19.00
2022-08-12T06:02:27.809Z,19.18
2022-08-12T06:03:26.787Z,19.31
2022-08-12T06:04:26.769Z,19.52
2022-08-12T06:05:26.760Z,19.70
2022-08-12T06:06:27.836Z,19.86
2022-08-12T06:07:48.732Z,20.09
2022-08-12T06:08:27.720Z,20.26
2022-08-12T06:09:26.711Z,20.43
2022-08-12T06:10:32.519Z,20.65
2022-08-12T06:11:27.691Z,20.84
2022-08-12T06:12:26.700Z,21.09
2022-08-12T06:13:52.843Z,21.43
2022-08-12T06:14:27.681Z,22.00
2022-08-12T06:15:26.687Z,22.81
2022-08-12T06:16:26.632Z,23.73
2022-08-12T06:17:26.622Z,24.55
2022-08-12T06:18:29.303Z,25.14
2022-08-12T06:20:28.138Z,25.73
2022-08-12T06:20:30.141Z,26.31
2022-08-12T06:21:27.582Z,26.63
2022-08-12T06:22:26.563Z,27.00
2022-08-12T06:23:26.581Z,27.07
2022-08-12T06:24:26.563Z,27.48
2022-08-12T06:25:26.544Z,27.78
2022-08-12T06:26:26.524Z,27.83
2022-08-12T06:27:26.514Z,27.95
2022-08-12T06:28:26.503Z,27.82
2022-08-12T06:30:06.903Z,28.02
2022-08-12T06:30:36.763Z,28.32
2022-08-12T06:31:27.539Z,28.76
2022-08-12T06:32:27.552Z,29.07
2022-08-12T06:34:00.382Z,29.05
2022-08-12T06:35:25.147Z,29.12
2022-08-12T06:35:49.222Z,29.20
2022-08-12T06:36:29.998Z,29.53
2022-08-12T06:37:27.406Z,29.73
2022-08-12T06:38:26.408Z,29.93
2022-08-12T06:39:26.461Z,29.88
2022-08-12T06:40:26.428Z,29.97
2022-08-12T06:41:26.366Z,30.27
2022-08-12T06:42:33.074Z,30.48
2022-08-12T06:43:27.339Z,30.57
2022-08-12T06:44:26.336Z,30.84
2022-08-12T06:45:26.320Z,31.00
2022-08-12T06:46:27.329Z,30.47
2022-08-12T06:47:26.300Z,30.15
2022-08-12T06:48:26.282Z,30.10
2022-08-12T06:49:26.281Z,30.21
2022-08-12T06:50:26.267Z,30.32
2022-08-12T06:51:26.251Z,30.39
2022-08-12T06:52:26.259Z,30.39
2022-08-12T06:53:26.240Z,29.97
2022-08-12T06:54:31.162Z,29.60
2022-08-12T06:55:27.213Z,29.65
2022-08-12T06:56:45.986Z,29.95
2022-08-12T06:58:01.995Z,30.19
2022-08-12T06:58:27.183Z,30.51
2022-08-12T06:59:26.173Z,31.12
2022-08-12T07:00:30.689Z,31.74
2022-08-12T07:01:27.198Z,32.09
2022-08-12T07:02:26.136Z,32.08
2022-08-12T07:03:26.160Z,31.96
2022-08-12T07:04:37.222Z,32.15
2022-08-12T07:05:27.115Z,32.23
2022-08-12T07:06:26.096Z,32.27
2022-08-12T07:07:26.086Z,32.01
2022-08-12T07:08:26.078Z,31.87
2022-08-12T07:10:05.198Z,31.85
2022-08-12T07:10:27.396Z,32.29
2022-08-12T07:11:26.047Z,32.71
2022-08-12T07:12:27.647Z,32.80
2022-08-12T07:13:26.027Z,32.36
2022-08-12T07:14:26.060Z,32.45
2022-08-12T07:15:26.008Z,32.77
2022-08-12T07:16:26.786Z,33.24
2022-08-12T07:17:25.993Z,33.55
2022-08-12T07:18:25.978Z,33.46
2022-08-12T07:19:25.970Z,33.07
2022-08-12T07:20:51.116Z,32.45
2022-08-12T07:21:59.019Z,31.73
2022-08-12T07:22:26.931Z,31.65
2022-08-12T07:23:25.921Z,31.54
2022-08-12T07:24:25.920Z,31.43
2022-08-12T07:25:25.901Z,31.76
2022-08-12T07:26:25.911Z,32.40
2022-08-12T07:27:25.885Z,32.96
2022-08-12T07:28:25.863Z,33.50
2022-08-12T07:29:25.864Z,33.81
2022-08-12T07:30:26.844Z,33.64
2022-08-12T07:31:25.844Z,33.68
2022-08-12T07:32:30.252Z,33.87
2022-08-12T07:33:25.844Z,34.29
2022-08-12T07:34:25.854Z,34.77
2022-08-12T07:35:25.806Z,35.10
2022-08-12T07:36:25.795Z,35.36
2022-08-12T07:37:25.805Z,35.56
2022-08-12T07:38:29.425Z,35.85
2022-08-12T07:39:25.793Z,36.17
2022-08-12T07:40:25.746Z,36.45
2022-08-12T07:41:25.746Z,36.70
2022-08-12T07:42:26.550Z,36.79
2022-08-12T07:43:25.736Z,36.81
2022-08-12T07:44:25.715Z,36.57
2022-08-12T07:45:25.706Z,36.62
2022-08-12T07:46:25.688Z,36.28
2022-08-12T07:47:25.678Z,36.12
2022-08-12T07:48:25.690Z,35.66
2022-08-12T07:49:25.659Z,35.41
2022-08-12T07:50:25.668Z,35.05
2022-08-12T07:51:25.891Z,34.60
2022-08-12T07:52:25.627Z,34.66
2022-08-12T07:53:25.621Z,35.22
2022-08-12T07:54:25.624Z,35.46
2022-08-12T07:55:25.601Z,35.00
2022-08-12T07:56:25.581Z,34.06
2022-08-12T07:57:25.597Z,33.90
2022-08-12T07:58:25.618Z,33.80
2022-08-12T07:59:25.611Z,33.59
2022-08-12T08:00:25.561Z,33.62
2022-08-12T08:01:25.602Z,33.71
2022-08-12T08:02:26.935Z,33.68
2022-08-12T08:03:25.608Z,33.64
2022-08-12T08:04:25.510Z,33.52
2022-08-12T08:05:25.526Z,33.67
2022-08-12T08:06:25.484Z,33.95
2022-08-12T08:07:25.476Z,33.86
2022-08-12T08:08:25.465Z,33.84
2022-08-12T08:09:25.464Z,33.92
2022-08-12T08:10:25.445Z,34.29
2022-08-12T08:11:25.455Z,33.99
2022-08-12T08:12:25.424Z,34.17
2022-08-12T08:13:25.417Z,34.35
2022-08-12T08:14:25.408Z,34.06
2022-08-12T08:15:44.491Z,34.25
2022-08-12T08:16:26.427Z,34.52
2022-08-12T08:17:25.375Z,34.77
2022-08-12T08:18:26.742Z,34.51
2022-08-12T08:19:25.358Z,34.57
2022-08-12T08:20:25.347Z,34.43
2022-08-12T08:21:25.338Z,34.39
2022-08-12T08:22:25.774Z,34.32
2022-08-12T08:23:29.342Z,34.81
2022-08-12T08:24:26.298Z,35.17
2022-08-12T08:25:36.986Z,35.60
2022-08-12T08:26:26.279Z,35.86
2022-08-12T08:27:25.298Z,36.16
2022-08-12T08:28:25.253Z,36.08
2022-08-12T08:29:25.250Z,35.53
2022-08-12T08:30:25.242Z,35.10
2022-08-12T08:31:25.233Z,34.86
2022-08-12T08:32:25.221Z,34.85
2022-08-12T08:34:04.235Z,35.05
2022-08-12T08:34:33.536Z,35.05
2022-08-12T08:35:32.850Z,35.22
2022-08-12T08:36:26.182Z,35.61
2022-08-12T08:37:27.724Z,35.88
2022-08-12T08:38:32.909Z,36.09
2022-08-12T08:39:26.200Z,36.14
2022-08-12T08:40:25.177Z,34.95
2022-08-12T08:42:17.638Z,34.75
2022-08-12T08:42:26.154Z,34.93
2022-08-12T08:43:25.139Z,35.07
2022-08-12T08:44:26.124Z,34.36
2022-08-12T08:45:25.104Z,34.20
2022-08-12T08:46:25.094Z,34.20
2022-08-12T08:47:25.075Z,34.36
2022-08-12T08:48:25.066Z,34.29
2022-08-12T08:49:25.094Z,34.36
2022-08-12T08:50:25.046Z,34.13
2022-08-12T08:51:25.053Z,34.02
2022-08-12T08:52:39.637Z,34.43
2022-08-12T08:53:26.037Z,34.47
2022-08-12T08:54:25.017Z,34.42
2022-08-12T08:55:33.529Z,34.29
2022-08-12T08:56:25.987Z,34.13
2022-08-12T08:57:24.978Z,34.16
2022-08-12T08:58:25.968Z,33.94
2022-08-12T08:59:24.958Z,33.62
2022-08-12T09:00:24.969Z,33.45
2022-08-12T09:01:25.039Z,33.49
2022-08-12T09:02:24.929Z,33.69
2022-08-12T09:04:21.274Z,34.25
2022-08-12T09:05:11.191Z,34.73
2022-08-12T09:05:26.122Z,34.77
2022-08-12T09:06:37.355Z,34.78
2022-08-12T09:07:51.843Z,34.24
2022-08-12T09:08:26.765Z,34.10
2022-08-12T09:09:24.860Z,34.05
2022-08-12T09:10:31.257Z,34.47
2022-08-12T09:12:11.219Z,34.01
2022-08-12T09:12:27.456Z,33.42
2022-08-12T09:13:29.430Z,33.39
2022-08-12T09:14:29.386Z,32.78
2022-08-12T09:15:35.674Z,32.12
2022-08-12T09:16:25.814Z,32.09
2022-08-12T09:17:24.786Z,32.43
2022-08-12T09:20:27.446Z,33.32
2022-08-12T09:21:24.973Z,33.58
2022-08-12T09:25:26.358Z,34.62
2022-08-12T09:26:28.937Z,33.87
2022-08-12T09:27:57.691Z,33.40
2022-08-12T09:28:31.102Z,33.40
2022-08-12T09:30:09.704Z,33.07
2022-08-12T09:30:42.209Z,33.15
2022-08-12T09:32:03.473Z,33.09
2022-08-12T09:32:31.403Z,33.39
2022-08-12T09:34:28.257Z,33.28
2022-08-12T09:34:34.195Z,33.58
2022-08-12T09:35:28.187Z,33.83
2022-08-12T09:36:31.252Z,34.08
2022-08-12T09:37:25.612Z,33.96
2022-08-12T09:38:27.879Z,33.92
2022-08-12T09:40:05.114Z,34.02
2022-08-12T09:41:01.567Z,34.05
2022-08-12T09:42:09.933Z,33.79
2022-08-12T09:42:38.693Z,33.55
2022-08-12T09:43:26.058Z,32.43
2022-08-12T09:44:39.003Z,32.11
2022-08-12T09:46:07.122Z,32.21
2022-08-12T09:46:26.376Z,32.26
2022-08-12T09:47:29.397Z,32.37
2022-08-12T09:48:25.484Z,32.34
2022-08-12T09:49:24.495Z,31.96
2022-08-12T09:50:24.492Z,31.21
2022-08-12T09:51:24.449Z,31.02
2022-08-12T09:52:25.445Z,30.84
2022-08-12T09:53:36.229Z,30.55
2022-08-12T09:54:33.183Z,30.51
2022-08-12T09:56:05.523Z,30.75
2022-08-12T09:56:58.500Z,30.94
2022-08-12T09:58:44.565Z,30.83
2022-08-12T09:58:57.646Z,30.59
2022-08-12T10:00:17.147Z,30.32
2022-08-12T10:00:29.014Z,30.28
2022-08-12T10:01:34.526Z,30.23
2022-08-12T10:02:43.899Z,30.06
2022-08-12T10:03:31.816Z,30.06
2022-08-12T10:04:25.365Z,30.21
2022-08-12T10:06:26.564Z,30.18
2022-08-12T10:06:31.832Z,29.95
2022-08-12T10:08:34.173Z,29.68
2022-08-12T10:09:57.093Z,29.98
2022-08-12T10:10:38.926Z,30.23
2022-08-12T10:12:10.728Z,30.39
2022-08-12T10:12:35.137Z,30.46
2022-08-12T10:13:39.016Z,30.44
2022-08-12T10:14:36.489Z,30.51
2022-08-12T10:16:02.618Z,30.46
2022-08-12T10:16:39.352Z,30.35
2022-08-12T10:17:34.095Z,30.28
2022-08-12T10:18:35.364Z,30.35
2022-08-12T10:19:36.335Z,30.25
2022-08-12T10:20:34.132Z,30.34
2022-08-12T10:21:35.719Z,30.66
2022-08-12T10:22:49.190Z,30.88
2022-08-12T10:23:40.068Z,30.85
2022-08-12T10:24:35.005Z,30.78
2022-08-12T10:26:10.037Z,30.70
2022-08-12T10:26:39.048Z,30.63
2022-08-12T10:28:03.518Z,30.00
2022-08-12T10:28:35.010Z,29.68
2022-08-12T10:30:03.513Z,29.57
2022-08-12T10:30:39.804Z,29.65
2022-08-12T10:32:19.570Z,29.61
2022-08-12T10:32:43.974Z,29.59
2022-08-12T10:33:47.623Z,29.47
2022-08-12T10:34:34.936Z,29.41
2022-08-12T10:35:37.917Z,29.41
2022-08-12T10:36:40.138Z,29.36
2022-08-12T10:38:34.420Z,29.50
2022-08-12T10:38:41.579Z,29.65
2022-08-12T10:40:00.244Z,29.82
2022-08-12T10:40:37.553Z,29.84
2022-08-12T10:41:57.299Z,29.87
2022-08-12T10:42:34.803Z,30.00
2022-08-12T10:43:54.283Z,30.08
2022-08-12T10:44:34.780Z,29.93
2022-08-12T10:45:38.133Z,29.79
2022-08-12T10:46:33.782Z,29.81
2022-08-12T10:48:15.871Z,29.72
2022-08-12T10:48:34.921Z,29.63
2022-08-12T10:50:03.314Z,29.61
2022-08-12T10:51:00.417Z,29.50
2022-08-12T10:52:02.797Z,29.41
2022-08-12T10:52:47.563Z,29.29
2022-08-12T10:53:45.776Z,29.31
2022-08-12T10:54:34.675Z,29.38
2022-08-12T10:55:33.667Z,29.51
2022-08-12T10:56:34.850Z,29.68
2022-08-12T10:58:13.302Z,29.82
2022-08-12T10:58:34.626Z,29.76
2022-08-12T11:00:01.396Z,29.61
2022-08-12T11:00:45.340Z,29.56
2022-08-12T11:04:19.665Z,29.59
2022-08-12T11:04:22.960Z,29.51
2022-08-12T11:04:27.372Z,29.60
2022-08-12T11:04:45.410Z,29.63
2022-08-12T11:07:05.356Z,30.09
2022-08-12T11:07:05.910Z,29.82
2022-08-12T11:08:34.764Z,30.15
2022-08-12T11:08:41.999Z,30.21
2022-08-12T11:09:55.757Z,30.12
2022-08-12T11:10:34.772Z,29.91
2022-08-12T11:12:34.838Z,29.91
2022-08-12T11:12:56.972Z,30.02
2022-08-12T11:13:45.869Z,30.02
2022-08-12T11:14:49.357Z,29.66
2022-08-12T11:16:03.594Z,29.39
2022-08-12T11:16:34.429Z,29.47
2022-08-12T11:17:43.770Z,29.34
2022-08-12T11:18:34.432Z,29.34
2022-08-12T11:19:33.402Z,29.41
2022-08-12T11:20:33.389Z,29.71
2022-08-12T11:21:57.423Z,29.93
2022-08-12T11:22:34.397Z,30.09
2022-08-12T11:23:36.607Z,30.06
2022-08-12T11:24:33.592Z,30.12
2022-08-12T11:25:56.101Z,30.23
2022-08-12T11:26:34.338Z,30.30
2022-08-12T11:27:33.318Z,30.19
2022-08-12T11:28:37.236Z,30.02
2022-08-12T11:30:02.101Z,29.87
2022-08-12T11:30:34.277Z,29.88
2022-08-12T11:31:56.276Z,29.86
2022-08-12T11:32:39.007Z,29.76
2022-08-12T11:34:06.465Z,29.76
2022-08-12T11:34:51.769Z,29.78
2022-08-12T11:35:34.213Z,29.72
2022-08-12T11:36:33.176Z,29.73
2022-08-12T11:37:48.383Z,29.75
2022-08-12T11:38:34.154Z,29.84
2022-08-12T11:40:34.157Z,29.88
2022-08-12T11:41:33.126Z,29.90
2022-08-12T11:42:33.116Z,29.72
2022-08-12T11:43:33.098Z,29.65
2022-08-12T11:44:36.765Z,29.61
2022-08-12T11:45:39.050Z,29.65
2022-08-12T11:46:34.088Z,29.66
2022-08-12T11:47:33.068Z,29.69
2022-08-12T11:48:51.297Z,29.72
2022-08-12T11:49:34.041Z,29.84
2022-08-12T11:50:33.064Z,30.06
2022-08-12T11:51:36.571Z,30.24
2022-08-12T11:52:55.864Z,30.27
2022-08-12T11:53:57.747Z,30.16
2022-08-12T11:54:33.983Z,30.10
2022-08-12T11:55:32.975Z,30.16
2022-08-12T11:56:38.453Z,30.24
2022-08-12T11:58:07.195Z,30.27
2022-08-12T12:01:02.739Z,30.27
2022-08-12T12:02:02.015Z,30.02
2022-08-12T12:02:33.975Z,30.00
2022-08-12T12:03:45.876Z,30.09
2022-08-12T12:04:34.259Z,30.23
2022-08-12T12:05:41.557Z,30.30
2022-08-12T12:06:33.852Z,30.32
2022-08-12T12:08:36.314Z,30.35
2022-08-12T12:08:37.092Z,30.43
2022-08-12T12:09:52.026Z,30.50
2022-08-12T12:10:33.835Z,30.46
2022-08-12T12:11:48.871Z,30.47
2022-08-12T12:12:33.818Z,30.54
2022-08-12T12:14:08.843Z,30.66
2022-08-12T12:14:38.032Z,30.66
2022-08-12T12:15:40.775Z,30.59
2022-08-12T12:16:38.222Z,30.55
2022-08-12T12:17:38.040Z,30.48
2022-08-12T12:18:32.728Z,30.40
2022-08-12T12:19:45.254Z,30.34
2022-08-12T12:20:33.714Z,30.40
2022-08-12T12:21:47.437Z,30.31
2022-08-12T12:22:33.705Z,30.23
2022-08-12T12:23:35.631Z,30.24
2022-08-12T12:24:32.663Z,30.27
2022-08-12T12:25:59.374Z,30.28
2022-08-12T12:26:35.244Z,30.31
2022-08-12T12:27:39.372Z,30.35
2022-08-12T12:28:37.905Z,30.30
2022-08-12T12:30:13.514Z,30.16
2022-08-12T12:30:33.598Z,30.03
2022-08-12T12:32:09.997Z,29.88
2022-08-12T12:32:33.570Z,29.75
2022-08-12T12:33:57.515Z,29.57
2022-08-12T12:34:33.597Z,29.51
2022-08-12T12:36:18.558Z,29.49
2022-08-12T12:36:33.531Z,29.49
2022-08-12T12:38:04.500Z,29.53
2022-08-12T12:38:33.510Z,29.66
2022-08-12T12:39:54.690Z,29.79
2022-08-12T12:40:33.493Z,29.94
2022-08-12T12:42:43.993Z,30.13
2022-08-12T12:42:45.408Z,30.25
2022-08-12T12:43:43.005Z,30.34
2022-08-12T12:44:42.025Z,30.37
2022-08-12T12:45:33.522Z,30.46
2022-08-12T12:46:32.424Z,30.35
2022-08-12T12:47:32.416Z,30.34
2022-08-12T12:48:32.427Z,30.31
2022-08-12T12:49:32.398Z,30.39
2022-08-12T12:50:35.007Z,30.46
2022-08-12T12:51:58.099Z,30.39
2022-08-12T12:52:33.359Z,30.30
2022-08-12T12:54:07.666Z,30.37
2022-08-12T12:54:33.360Z,30.25
2022-08-12T12:55:34.748Z,30.13
2022-08-12T12:56:34.719Z,30.16
2022-08-12T12:57:36.156Z,30.19
2022-08-12T12:58:33.297Z,30.16
2022-08-12T12:59:55.414Z,30.23
2022-08-12T13:00:33.335Z,30.37
2022-08-12T13:01:36.314Z,30.47
2022-08-12T13:02:33.262Z,30.48